Time;durP1;ratioP1;P1;durP2;ratioP2;P2;SDS_P1;SDS_P2;PMS_P1;PMS_P2;Temp;Humidity;BMP_temperature;BMP_pressure;BME280_temperature;BME280_humidity;BME280_pressure;Samples;Min_cycle;Max_cycle;Signal;HPM_P1;HPM_P2
2024/01/14 00:02:21;;;;;;;13.52;3.03;;;4.60;99.90;;;;;;4984444;28;20038;-84
2024/01/14 00:04:47;;;;;;;16.77;3.42;;;4.60;99.90;;;;;;4987907;28;20061;-83
2024/01/14 00:07:12;;;;;;;16.67;2.72;;;4.60;99.90;;;;;;4988396;28;20076;-83
2024/01/14 00:09:38;;;;;;;12.60;2.30;;;4.60;99.90;;;;;;4982964;28;20056;-83
2024/01/14 00:12:05;;;;;;;15.82;2.65;;;4.60;99.90;;;;;;4999803;28;20049;-84
2024/01/14 00:14:31;;;;;;;17.17;3.00;;;4.60;99.90;;;;;;5005350;28;20107;-85
2024/01/14 00:16:56;;;;;;;11.18;2.58;;;4.60;99.90;;;;;;4989598;28;20049;-84
2024/01/14 00:19:22;;;;;;;15.40;2.95;;;4.70;99.90;;;;;;5002570;28;20045;-84
2024/01/14 00:21:48;;;;;;;17.23;3.30;;;4.70;99.90;;;;;;4990987;28;20053;-84
2024/01/14 00:24:15;;;;;;;8.60;2.17;;;4.70;99.90;;;;;;4986735;28;20079;-84
2024/01/14 00:26:41;;;;;;;13.75;2.20;;;4.70;99.90;;;;;;4988571;28;20045;-82
2024/01/14 00:29:07;;;;;;;14.15;2.72;;;4.80;99.90;;;;;;5014950;28;20121;-84
2024/01/14 00:31:33;;;;;;;12.63;2.15;;;4.80;99.90;;;;;;5003463;28;20041;-83
2024/01/14 00:33:58;;;;;;;16.02;2.55;;;4.70;99.90;;;;;;5009916;28;20529;-84
2024/01/14 00:36:24;;;;;;;9.85;2.17;;;4.70;99.90;;;;;;5013817;28;20050;-85
2024/01/14 00:38:51;;;;;;;11.63;2.33;;;4.70;99.90;;;;;;4984671;28;20053;-84
2024/01/14 00:41:17;;;;;;;15.65;3.15;;;4.80;99.90;;;;;;4998184;28;20177;-84
2024/01/14 00:43:43;;;;;;;13.35;2.17;;;4.70;99.90;;;;;;4991226;28;20057;-83
2024/01/14 00:46:09;;;;;;;9.02;2.33;;;4.70;99.90;;;;;;5001945;28;20049;-84
2024/01/14 00:48:35;;;;;;;14.60;2.95;;;4.70;99.90;;;;;;4982760;28;20101;-83
2024/01/14 00:51:01;;;;;;;15.30;2.00;;;4.70;99.90;;;;;;4992400;28;20137;-84
2024/01/14 00:53:27;;;;;;;10.88;1.65;;;4.70;99.90;;;;;;4999341;28;20485;-82
2024/01/14 00:55:52;;;;;;;7.55;2.08;;;4.70;99.90;;;;;;5001582;28;20030;-84
2024/01/14 00:58:18;;;;;;;10.85;1.65;;;4.60;99.90;;;;;;4986083;28;20041;-84
2024/01/14 01:00:44;;;;;;;8.93;1.80;;;4.70;99.90;;;;;;5001276;28;20037;-84
2024/01/14 01:03:09;;;;;;;11.32;1.75;;;4.70;99.90;;;;;;4994261;28;20717;-84
2024/01/14 01:05:35;;;;;;;6.90;1.67;;;4.80;99.90;;;;;;4999296;28;20046;-84
2024/01/14 01:08:02;;;;;;;12.65;1.98;;;4.80;99.90;;;;;;5001287;28;20489;-84
2024/01/14 01:10:27;;;;;;;7.75;1.67;;;4.80;99.90;;;;;;4996460;28;20038;-84
2024/01/14 01:12:53;;;;;;;8.85;1.80;;;4.80;99.90;;;;;;5018384;28;20081;-84
2024/01/14 01:15:19;;;;;;;5.55;1.55;;;4.80;99.90;;;;;;4997727;28;20300;-81
2024/01/14 01:17:45;;;;;;;5.60;1.40;;;4.80;99.90;;;;;;4999682;28;20312;-84
2024/01/14 01:20:11;;;;;;;11.40;1.70;;;4.80;99.90;;;;;;4997936;28;20449;-84
2024/01/14 01:22:37;;;;;;;10.63;1.98;;;4.80;99.90;;;;;;5027502;28;20049;-84
2024/01/14 01:25:03;;;;;;;9.05;1.73;;;4.90;99.90;;;;;;5012225;28;20038;-84
2024/01/14 01:27:29;;;;;;;9.82;2.30;;;4.80;99.90;;;;;;5026193;28;20050;-84
2024/01/14 01:29:56;;;;;;;9.82;1.95;;;4.90;99.90;;;;;;4986645;28;20597;-84
2024/01/14 01:32:22;;;;;;;10.05;1.77;;;4.80;99.90;;;;;;5001313;28;20033;-83
2024/01/14 01:34:48;;;;;;;8.98;1.55;;;4.80;99.90;;;;;;4985930;28;20582;-84
2024/01/14 01:37:14;;;;;;;8.30;1.42;;;4.70;99.90;;;;;;4991432;28;20065;-83
2024/01/14 01:39:40;;;;;;;3.03;1.13;;;4.70;99.90;;;;;;5009812;28;20049;-84
2024/01/14 01:42:06;;;;;;;11.88;2.05;;;4.60;99.90;;;;;;5014840;28;20069;-81
2024/01/14 01:44:33;;;;;;;8.02;1.65;;;4.60;99.90;;;;;;4997441;28;20445;-84
2024/01/14 01:47:00;;;;;;;7.68;2.35;;;4.50;99.90;;;;;;4984368;28;20053;-84
2024/01/14 01:49:27;;;;;;;5.72;1.38;;;4.40;99.90;;;;;;4998688;28;20046;-84
2024/01/14 01:51:54;;;;;;;11.00;1.40;;;4.30;99.90;;;;;;5016589;28;20092;-84
2024/01/14 01:54:26;;;;;;;13.50;1.85;;;4.20;99.90;;;;;;5000495;28;20042;-84
2024/01/14 01:56:53;;;;;;;7.88;1.50;;;4.20;99.90;;;;;;5029650;28;20042;-83
2024/01/14 01:59:20;;;;;;;7.82;1.83;;;4.00;99.90;;;;;;4993432;28;20041;-84
2024/01/14 02:01:47;;;;;;;9.35;1.70;;;4.00;99.90;;;;;;5000562;28;20116;-84
2024/01/14 02:04:17;;;;;;;10.18;2.22;;;3.90;99.90;;;;;;5015820;28;20140;-83
2024/01/14 02:06:43;;;;;;;8.10;1.63;;;3.90;99.90;;;;;;4984210;28;20057;-84
2024/01/14 02:09:09;;;;;;;8.90;1.95;;;3.90;99.90;;;;;;4983240;28;20138;-84
2024/01/14 02:11:36;;;;;;;8.95;2.13;;;3.80;99.90;;;;;;4996704;28;20116;-84
2024/01/14 02:14:05;;;;;;;7.72;2.13;;;3.70;99.90;;;;;;4998973;28;20100;-84
2024/01/14 02:16:31;;;;;;;8.20;1.60;;;3.60;99.90;;;;;;5003545;28;20069;-84
2024/01/14 02:18:57;;;;;;;9.43;1.98;;;3.50;99.90;;;;;;4995916;28;20588;-84
2024/01/14 02:21:28;;;;;;;10.43;2.33;;;3.30;99.90;;;;;;4991977;28;20042;-83
2024/01/14 02:24:10;;;;;;;6.93;1.70;;;3.40;99.90;;;;;;4995345;28;20046;-84
2024/01/14 02:26:36;;;;;;;7.47;2.10;;;3.40;99.90;;;;;;4974016;28;20042;-83
2024/01/14 02:29:04;;;;;;;10.80;2.17;;;3.30;99.90;;;;;;5026393;28;20050;-84
2024/01/14 02:31:29;;;;;;;12.10;2.00;;;3.30;99.90;;;;;;4999150;28;20707;-83
2024/01/14 02:33:55;;;;;;;7.75;1.77;;;3.30;99.90;;;;;;4998664;28;20081;-84
2024/01/14 02:36:21;;;;;;;14.30;2.40;;;3.40;99.90;;;;;;4985161;28;20042;-84
2024/01/14 02:38:47;;;;;;;15.90;2.30;;;3.40;99.90;;;;;;4991657;28;20216;-84
2024/01/14 02:41:12;;;;;;;14.23;2.50;;;3.30;99.90;;;;;;4986440;28;20135;-84
2024/01/14 02:43:38;;;;;;;12.63;2.33;;;3.30;99.90;;;;;;5008574;28;20481;-83
2024/01/14 02:46:04;;;;;;;11.02;2.33;;;3.10;99.90;;;;;;4991997;28;20087;-84
2024/01/14 02:48:30;;;;;;;8.75;1.77;;;3.10;99.90;;;;;;4992669;28;20034;-82
2024/01/14 02:50:55;;;;;;;12.70;2.13;;;3.30;99.90;;;;;;4983648;28;20313;-83
2024/01/14 02:53:21;;;;;;;9.85;1.70;;;3.20;99.90;;;;;;4997514;28;20052;-84
2024/01/14 02:55:47;;;;;;;10.98;2.08;;;3.20;99.90;;;;;;4985198;28;20041;-83
2024/01/14 02:58:13;;;;;;;10.40;2.30;;;3.30;99.90;;;;;;4996783;28;20045;-84
2024/01/14 03:00:39;;;;;;;11.45;2.45;;;3.30;99.90;;;;;;4995704;28;20048;-84
2024/01/14 03:03:04;;;;;;;14.02;2.38;;;3.40;99.90;;;;;;4994381;28;20320;-83
2024/01/14 03:05:30;;;;;;;8.05;1.67;;;3.30;99.90;;;;;;4984259;28;20042;-83
2024/01/14 03:07:56;;;;;;;14.23;2.30;;;3.40;99.90;;;;;;4986892;28;20045;-84
2024/01/14 03:10:22;;;;;;;12.75;2.25;;;3.40;99.90;;;;;;4997775;28;20397;-83
2024/01/14 03:12:48;;;;;;;15.70;2.50;;;3.50;99.90;;;;;;5001849;28;20075;-84
2024/01/14 03:15:15;;;;;;;13.82;2.35;;;3.40;99.90;;;;;;4983744;28;20393;-83
2024/01/14 03:17:40;;;;;;;10.73;2.10;;;3.60;99.90;;;;;;4983973;28;20462;-84
2024/01/14 03:20:07;;;;;;;10.10;2.45;;;3.50;99.90;;;;;;4999941;28;20029;-84
2024/01/14 03:22:33;;;;;;;14.13;3.05;;;3.40;99.90;;;;;;4982444;28;20480;-83
2024/01/14 03:24:59;;;;;;;10.93;2.15;;;3.30;99.90;;;;;;4987940;28;20060;-84
2024/01/14 03:27:24;;;;;;;12.25;2.60;;;3.30;99.90;;;;;;4998492;28;20416;-83
2024/01/14 03:29:50;;;;;;;12.32;2.22;;;3.40;99.90;;;;;;4984957;28;20113;-84
2024/01/14 03:32:16;;;;;;;12.88;2.80;;;3.40;99.90;;;;;;5033812;28;20464;-83
2024/01/14 03:34:42;;;;;;;10.65;2.97;;;3.40;99.90;;;;;;5015543;28;20042;-84
2024/01/14 03:37:08;;;;;;;12.25;2.15;;;3.50;99.90;;;;;;4994279;28;20081;-83
2024/01/14 03:39:34;;;;;;;17.35;3.17;;;3.50;99.90;;;;;;5003385;28;20137;-84
2024/01/14 03:41:59;;;;;;;14.43;2.83;;;3.30;99.90;;;;;;4984412;28;20192;-84
2024/01/14 03:44:26;;;;;;;12.75;2.80;;;3.30;99.90;;;;;;5001547;28;20038;-83
2024/01/14 03:46:51;;;;;;;14.18;2.53;;;3.40;99.90;;;;;;4995949;28;20053;-83
2024/01/14 03:49:17;;;;;;;13.13;3.30;;;3.40;99.90;;;;;;5031917;28;20038;-83
2024/01/14 03:51:43;;;;;;;10.27;2.70;;;3.10;99.90;;;;;;4985547;28;20540;-84
2024/01/14 03:54:09;;;;;;;16.95;2.83;;;3.20;99.90;;;;;;4983803;28;20041;-83
2024/01/14 03:56:34;;;;;;;14.18;2.55;;;3.10;99.90;;;;;;4986487;28;20041;-84
2024/01/14 03:59:00;;;;;;;11.57;3.20;;;3.10;99.90;;;;;;5016636;28;20304;-83
2024/01/14 04:01:26;;;;;;;15.20;3.00;;;3.10;99.90;;;;;;4986502;28;20413;-84
2024/01/14 04:03:51;;;;;;;13.73;2.70;;;3.30;99.90;;;;;;5017032;28;20049;-84
2024/01/14 04:06:22;;;;;;;15.02;3.10;;;3.30;99.90;;;;;;4981203;28;20045;-84
2024/01/14 04:08:48;;;;;;;23.00;3.00;;;3.10;99.90;;;;;;5030245;28;20045;-84
2024/01/14 04:11:14;;;;;;;18.25;2.60;;;3.10;99.90;;;;;;4996062;28;20429;-83
2024/01/14 04:13:40;;;;;;;14.05;2.90;;;3.10;99.90;;;;;;5004269;28;20100;-84
2024/01/14 04:16:07;;;;;;;18.00;3.00;;;3.10;99.90;;;;;;4992351;28;20077;-82
2024/01/14 04:18:35;;;;;;;13.18;2.50;;;3.00;99.90;;;;;;4982956;28;20068;-84
2024/01/14 04:21:00;;;;;;;12.48;3.00;;;2.90;99.90;;;;;;4999008;28;20041;-83
2024/01/14 04:23:26;;;;;;;14.02;3.35;;;2.90;99.90;;;;;;4985758;28;20402;-84
2024/01/14 04:25:54;;;;;;;20.73;3.22;;;2.90;99.90;;;;;;4983821;28;20081;-83
2024/01/14 04:28:20;;;;;;;17.13;3.03;;;2.80;99.90;;;;;;4999464;28;20749;-84
2024/01/14 04:30:46;;;;;;;16.63;2.95;;;2.80;99.90;;;;;;4988088;28;20117;-83
2024/01/14 04:33:12;;;;;;;19.25;3.17;;;2.90;99.90;;;;;;4998125;28;20041;-84
2024/01/14 04:35:38;;;;;;;18.73;2.67;;;2.80;99.90;;;;;;4984897;28;20093;-82
2024/01/14 04:38:03;;;;;;;11.98;2.90;;;2.60;99.90;;;;;;5030548;28;20050;-84
2024/01/14 04:40:32;;;;;;;13.68;3.00;;;2.70;99.90;;;;;;4997038;28;20034;-84
2024/01/14 04:42:58;;;;;;;21.60;3.30;;;2.70;99.90;;;;;;5018103;28;20148;-84
2024/01/14 04:45:23;;;;;;;16.92;2.80;;;2.70;99.90;;;;;;4985618;28;20484;-84
2024/01/14 04:47:49;;;;;;;16.92;3.35;;;2.50;99.90;;;;;;4980711;28;20048;-83
2024/01/14 04:50:15;;;;;;;10.52;2.70;;;2.60;99.90;;;;;;4994747;28;20125;-84
2024/01/14 04:52:41;;;;;;;21.95;3.10;;;2.70;99.90;;;;;;4998177;28;20068;-84
2024/01/14 04:55:06;;;;;;;15.30;2.97;;;2.60;99.90;;;;;;4998181;28;20309;-84
2024/01/14 04:57:32;;;;;;;15.60;2.65;;;2.60;99.90;;;;;;4997358;28;20049;-83
2024/01/14 04:59:58;;;;;;;16.73;2.92;;;2.60;99.90;;;;;;4991401;28;20100;-84
2024/01/14 05:02:24;;;;;;;16.27;2.78;;;2.50;99.90;;;;;;4984798;28;20060;-83
2024/01/14 05:04:49;;;;;;;15.07;2.60;;;2.60;99.90;;;;;;4983268;28;20052;-83
2024/01/14 05:07:15;;;;;;;15.27;2.60;;;2.60;99.90;;;;;;4993123;28;20053;-84
2024/01/14 05:09:41;;;;;;;15.43;3.15;;;2.60;99.90;;;;;;4999742;28;20038;-82
2024/01/14 05:12:07;;;;;;;16.73;3.15;;;2.60;99.90;;;;;;4989580;28;20042;-84
2024/01/14 05:14:32;;;;;;;20.70;3.50;;;2.50;99.90;;;;;;4998380;28;20046;-83
2024/01/14 05:16:58;;;;;;;20.27;3.22;;;2.50;99.90;;;;;;4982716;28;20046;-84
2024/01/14 05:19:24;;;;;;;18.05;3.72;;;2.70;99.90;;;;;;4999902;28;20050;-84
2024/01/14 05:21:53;;;;;;;19.48;2.95;;;2.70;99.90;;;;;;4980298;28;20148;-83
2024/01/14 05:24:19;;;;;;;15.52;3.40;;;2.50;99.90;;;;;;4982190;28;20046;-83
2024/01/14 05:26:44;;;;;;;17.30;3.35;;;2.60;99.90;;;;;;5026657;28;20050;-83
2024/01/14 05:29:10;;;;;;;17.95;3.22;;;2.70;99.90;;;;;;4984376;28;20037;-84
2024/01/14 05:31:37;;;;;;;18.60;3.75;;;2.50;99.90;;;;;;4999326;28;20042;-83
2024/01/14 05:34:03;;;;;;;15.40;3.00;;;2.60;99.90;;;;;;4993103;28;20038;-83
2024/01/14 05:36:32;;;;;;;15.23;2.90;;;2.70;99.90;;;;;;5000847;28;20054;-83
2024/01/14 05:38:57;;;;;;;25.85;3.22;;;2.60;99.90;;;;;;4982599;28;20545;-84
2024/01/14 05:41:23;;;;;;;19.85;3.25;;;2.80;99.90;;;;;;4982171;28;20117;-83
2024/01/14 05:43:50;;;;;;;20.17;3.20;;;2.80;99.90;;;;;;4987362;28;20459;-84
2024/01/14 05:46:16;;;;;;;16.63;3.47;;;2.90;99.90;;;;;;4994262;28;20528;-83
2024/01/14 05:48:42;;;;;;;17.52;3.28;;;2.80;99.90;;;;;;4987070;28;20050;-84
2024/01/14 05:51:09;;;;;;;18.00;3.08;;;2.70;99.90;;;;;;5002946;28;20045;-83
2024/01/14 05:53:35;;;;;;;10.65;3.10;;;2.70;99.90;;;;;;4999311;28;20513;-84
2024/01/14 05:56:02;;;;;;;25.80;3.90;;;2.80;99.90;;;;;;5002273;28;20041;-84
2024/01/14 05:58:29;;;;;;;14.38;3.28;;;2.90;99.90;;;;;;5017624;28;20400;-84
2024/01/14 06:00:55;;;;;;;19.55;3.88;;;2.80;99.90;;;;;;4981514;28;20333;-83
2024/01/14 06:03:21;;;;;;;16.23;3.15;;;2.70;99.90;;;;;;4992906;28;20077;-83
2024/01/14 06:05:47;;;;;;;16.02;2.83;;;2.90;99.90;;;;;;4997644;28;20045;-84
2024/01/14 06:08:12;;;;;;;14.40;2.90;;;2.70;99.90;;;;;;4978730;28;20092;-83
2024/01/14 06:10:38;;;;;;;19.70;4.10;;;2.70;99.90;;;;;;5026739;28;20048;-84
2024/01/14 06:13:05;;;;;;;18.60;3.67;;;2.80;99.90;;;;;;5028824;28;20045;-84
2024/01/14 06:15:31;;;;;;;18.48;2.95;;;2.90;99.90;;;;;;5027219;28;20045;-84
2024/01/14 06:17:57;;;;;;;19.90;3.38;;;2.90;99.90;;;;;;4986176;28;20069;-83
2024/01/14 06:20:22;;;;;;;18.85;3.10;;;2.70;99.90;;;;;;5028619;28;20130;-84
2024/01/14 06:22:48;;;;;;;14.82;3.40;;;2.90;99.90;;;;;;5010785;28;20037;-84
2024/01/14 06:25:14;;;;;;;20.60;3.53;;;3.00;99.90;;;;;;4985481;28;20477;-83
2024/01/14 06:27:40;;;;;;;19.15;2.92;;;2.90;99.90;;;;;;5001884;28;20046;-84
2024/01/14 06:30:07;;;;;;;16.48;2.97;;;3.00;99.90;;;;;;4985403;28;20211;-83
2024/01/14 06:32:32;;;;;;;19.25;3.15;;;2.80;99.90;;;;;;4982789;28;20381;-84
2024/01/14 06:34:58;;;;;;;17.02;3.25;;;2.80;99.90;;;;;;4999454;28;20046;-83
2024/01/14 06:37:24;;;;;;;20.98;3.03;;;2.80;99.90;;;;;;4985557;28;20148;-84
2024/01/14 06:39:50;;;;;;;19.73;2.60;;;2.90;99.90;;;;;;5012585;28;20085;-84
2024/01/14 06:42:16;;;;;;;19.30;3.40;;;2.90;99.90;;;;;;4993543;28;20640;-84
2024/01/14 06:44:41;;;;;;;17.45;3.00;;;2.70;99.90;;;;;;4993393;28;20080;-83
2024/01/14 06:47:07;;;;;;;20.25;3.58;;;2.90;99.90;;;;;;4983428;28;20046;-82
2024/01/14 06:49:33;;;;;;;17.10;2.90;;;2.80;99.90;;;;;;4994270;28;20045;-84
2024/01/14 06:51:59;;;;;;;15.82;2.72;;;2.70;99.90;;;;;;4983589;28;20309;-83
2024/01/14 06:54:25;;;;;;;16.90;2.75;;;2.70;99.90;;;;;;5030202;28;20037;-83
2024/01/14 06:56:50;;;;;;;17.33;3.38;;;2.70;99.90;;;;;;4999144;28;20358;-83
2024/01/14 06:59:21;;;;;;;16.35;2.97;;;2.80;99.90;;;;;;4984490;28;20045;-83
2024/01/14 07:01:47;;;;;;;17.13;3.45;;;2.80;99.90;;;;;;4995362;28;20142;-84
2024/01/14 07:04:13;;;;;;;18.30;3.20;;;2.70;99.90;;;;;;5028785;28;20039;-83
2024/01/14 07:06:40;;;;;;;14.35;3.55;;;2.70;99.90;;;;;;5017990;28;20045;-84
2024/01/14 07:09:08;;;;;;;17.35;2.63;;;3.00;99.90;;;;;;5011869;28;20103;-82
2024/01/14 07:11:35;;;;;;;20.95;3.22;;;2.80;99.90;;;;;;4993278;28;20161;-84
2024/01/14 07:14:01;;;;;;;14.20;2.97;;;2.90;99.90;;;;;;4999048;28;20042;-82
2024/01/14 07:16:26;;;;;;;20.48;3.10;;;2.90;99.90;;;;;;4979450;28;20289;-84
2024/01/14 07:18:52;;;;;;;18.23;2.88;;;2.90;99.90;;;;;;4991744;28;20092;-84
2024/01/14 07:21:23;;;;;;;16.40;3.13;;;2.80;99.90;;;;;;4986657;28;20099;-84
2024/01/14 07:23:49;;;;;;;17.08;2.97;;;2.80;99.90;;;;;;4999028;28;20049;-83
2024/01/14 07:26:18;;;;;;;15.00;2.53;;;2.90;99.90;;;;;;5017531;28;20076;-84
2024/01/14 07:28:44;;;;;;;19.25;3.03;;;3.00;99.90;;;;;;4985738;28;20049;-82
2024/01/14 07:31:12;;;;;;;15.40;3.15;;;2.90;99.90;;;;;;4996878;28;20547;-84
2024/01/14 07:33:38;;;;;;;17.55;2.92;;;2.70;99.90;;;;;;4994991;28;20049;-84
2024/01/14 07:36:05;;;;;;;18.92;3.47;;;2.90;99.90;;;;;;5009284;28;20092;-84
2024/01/14 07:38:31;;;;;;;16.30;3.38;;;2.70;99.90;;;;;;4987186;28;20042;-84
2024/01/14 07:40:56;;;;;;;13.75;2.97;;;2.60;99.90;;;;;;5029016;28;20100;-83
2024/01/14 07:43:22;;;;;;;15.30;2.97;;;2.80;99.90;;;;;;4986660;28;20232;-83
2024/01/14 07:45:50;;;;;;;14.85;3.20;;;2.80;99.90;;;;;;4994547;28;20045;-83
2024/01/14 07:48:15;;;;;;;11.68;2.33;;;2.70;99.90;;;;;;4998044;28;20038;-84
2024/01/14 07:50:41;;;;;;;11.77;2.63;;;2.60;99.90;;;;;;4999930;28;20305;-83
2024/01/14 07:53:09;;;;;;;18.55;3.00;;;2.50;99.90;;;;;;4982729;28;20061;-84
2024/01/14 07:55:35;;;;;;;14.05;2.85;;;2.60;99.90;;;;;;5002215;28;20401;-83
2024/01/14 07:58:00;;;;;;;12.07;2.30;;;2.60;99.90;;;;;;4997942;28;20042;-84
2024/01/14 08:00:26;;;;;;;8.90;2.20;;;2.60;99.90;;;;;;4984499;28;20529;-83
2024/01/14 08:02:52;;;;;;;16.02;2.42;;;2.70;99.90;;;;;;4980000;28;20053;-84
2024/01/14 08:05:19;;;;;;;18.02;2.67;;;2.80;99.90;;;;;;4986966;28;20505;-84
2024/01/14 08:07:44;;;;;;;16.30;2.40;;;2.80;99.90;;;;;;4995608;28;20049;-84
2024/01/14 08:10:11;;;;;;;11.32;2.22;;;2.70;99.90;;;;;;5001671;28;20056;-84
2024/01/14 08:12:37;;;;;;;16.58;2.92;;;2.90;99.90;;;;;;4983690;28;20425;-82
2024/01/14 08:15:03;;;;;;;10.90;2.17;;;2.90;99.90;;;;;;4983085;28;20326;-84
2024/01/14 08:17:28;;;;;;;16.20;2.90;;;3.00;99.90;;;;;;4989758;28;20481;-83
2024/01/14 08:19:54;;;;;;;15.68;2.53;;;3.00;99.90;;;;;;4995740;28;20047;-84
2024/01/14 08:22:23;;;;;;;13.35;2.50;;;3.00;99.90;;;;;;4997087;28;20038;-84
2024/01/14 08:24:49;;;;;;;15.65;2.60;;;3.10;99.90;;;;;;4984977;28;20515;-84
2024/01/14 08:27:16;;;;;;;13.57;2.22;;;3.00;99.90;;;;;;4985540;28;20058;-84
2024/01/14 08:29:41;;;;;;;16.45;3.15;;;3.00;99.90;;;;;;4988906;28;20049;-84
2024/01/14 08:32:07;;;;;;;10.00;2.30;;;2.90;99.90;;;;;;5004462;28;20057;-83
2024/01/14 08:34:33;;;;;;;11.63;2.22;;;3.00;99.90;;;;;;4997271;28;20041;-84
2024/01/14 08:36:59;;;;;;;11.18;3.00;;;3.10;99.90;;;;;;4998875;28;21868;-83
2024/01/14 08:39:25;;;;;;;12.88;2.38;;;3.00;99.90;;;;;;4979739;28;20133;-82
2024/01/14 08:41:50;;;;;;;9.32;2.10;;;3.00;99.90;;;;;;4984022;28;20549;-84
2024/01/14 08:44:16;;;;;;;9.40;2.35;;;3.00;99.90;;;;;;4998247;28;20190;-83
2024/01/14 08:46:44;;;;;;;11.50;2.47;;;2.90;99.90;;;;;;4989000;28;20188;-82
2024/01/14 08:49:09;;;;;;;14.38;2.33;;;2.90;99.90;;;;;;4980704;28;20132;-84
2024/01/14 08:51:35;;;;;;;12.80;2.40;;;3.00;99.90;;;;;;4997989;28;20573;-83
2024/01/14 08:54:01;;;;;;;13.32;2.30;;;2.90;99.90;;;;;;4998360;28;20519;-83
2024/01/14 08:56:33;;;;;;;11.50;2.33;;;3.00;99.90;;;;;;5001681;28;20095;-84
2024/01/14 08:58:59;;;;;;;12.02;2.38;;;2.90;99.90;;;;;;4982747;28;20077;-84
2024/01/14 09:01:26;;;;;;;15.52;2.45;;;3.10;99.90;;;;;;5011573;28;20117;-84
2024/01/14 09:03:52;;;;;;;11.13;2.22;;;3.20;99.90;;;;;;4984565;28;20045;-83
2024/01/14 09:06:17;;;;;;;12.20;2.42;;;3.20;99.90;;;;;;4985021;28;20463;-84
2024/01/14 09:08:43;;;;;;;14.43;2.53;;;3.20;99.90;;;;;;4997566;28;20042;-83
2024/01/14 09:11:09;;;;;;;11.35;2.58;;;3.30;99.90;;;;;;5002760;28;20042;-84
2024/01/14 09:13:35;;;;;;;15.55;2.38;;;3.30;99.90;;;;;;4988848;28;20497;-83
2024/01/14 09:16:02;;;;;;;17.30;2.58;;;3.30;99.90;;;;;;4995247;28;20403;-83
2024/01/14 09:18:28;;;;;;;13.07;2.80;;;3.40;99.90;;;;;;4994268;28;20113;-83
2024/01/14 09:20:53;;;;;;;13.73;2.50;;;3.40;99.90;;;;;;4998606;28;20105;-84
2024/01/14 09:23:19;;;;;;;9.98;2.60;;;3.40;99.90;;;;;;5014754;28;20473;-83
2024/01/14 09:25:45;;;;;;;17.23;2.55;;;3.40;99.90;;;;;;4979755;28;20040;-83
2024/01/14 09:28:11;;;;;;;12.50;2.92;;;3.60;99.90;;;;;;5026534;28;20042;-84
2024/01/14 09:30:38;;;;;;;8.30;2.15;;;3.50;99.90;;;;;;4993170;28;20049;-84
2024/01/14 09:33:04;;;;;;;12.07;2.50;;;3.50;99.90;;;;;;5000813;28;20076;-84
2024/01/14 09:35:29;;;;;;;14.90;2.72;;;3.70;99.90;;;;;;4983372;28;20041;-84
2024/01/14 09:37:55;;;;;;;11.48;2.42;;;3.70;99.90;;;;;;5007507;28;20053;-84
2024/01/14 09:40:21;;;;;;;15.45;2.88;;;3.80;99.90;;;;;;4993314;28;21091;-84
2024/01/14 09:42:50;;;;;;;12.10;2.70;;;3.80;99.90;;;;;;5027290;28;20049;-84
2024/01/14 09:45:16;;;;;;;11.70;2.20;;;3.90;99.90;;;;;;4998214;28;20070;-84
2024/01/14 09:47:45;;;;;;;10.20;2.40;;;3.80;99.90;;;;;;5002802;28;20050;-84
2024/01/14 09:50:11;;;;;;;11.07;2.30;;;3.80;99.90;;;;;;5004703;28;20053;-84
2024/01/14 09:52:40;;;;;;;11.90;2.40;;;4.00;99.90;;;;;;5000411;28;20038;-83
2024/01/14 09:55:06;;;;;;;8.50;2.33;;;3.90;99.90;;;;;;4983050;28;20105;-84
2024/01/14 09:57:34;;;;;;;11.95;2.33;;;3.90;99.90;;;;;;5018560;28;20057;-83
2024/01/14 10:00:04;;;;;;;7.53;2.22;;;3.90;99.90;;;;;;5027909;28;20126;-85
2024/01/14 10:02:35;;;;;;;11.63;2.38;;;4.00;99.90;;;;;;5000014;28;20474;-83
2024/01/14 10:05:01;;;;;;;10.27;2.53;;;4.00;99.90;;;;;;4996394;28;20041;-84
2024/01/14 10:07:27;;;;;;;9.93;2.30;;;4.00;99.90;;;;;;5026889;28;20042;-84
2024/01/14 10:09:53;;;;;;;11.20;2.67;;;4.10;99.90;;;;;;5014390;28;20050;-84
2024/01/14 10:12:19;;;;;;;15.27;2.30;;;4.10;99.90;;;;;;5010006;28;20034;-83
2024/01/14 10:14:55;;;;;;;13.02;2.80;;;4.10;99.90;;;;;;4984625;28;20065;-84
2024/01/14 10:17:24;;;;;;;12.07;2.28;;;4.10;99.90;;;;;;5003335;28;20513;-83
2024/01/14 10:19:59;;;;;;;10.80;2.75;;;4.10;99.90;;;;;;4994718;28;20820;-84
2024/01/14 10:22:29;;;;;;;9.73;2.58;;;4.10;99.90;;;;;;4996553;28;20042;-83
2024/01/14 10:24:56;;;;;;;11.18;2.50;;;4.20;99.90;;;;;;5000999;28;20107;-84
2024/01/14 10:27:23;;;;;;;8.60;2.50;;;4.20;99.90;;;;;;5034089;28;20119;-84
2024/01/14 10:29:50;;;;;;;9.85;2.33;;;4.30;99.90;;;;;;4994549;28;21071;-84
2024/01/14 10:32:19;;;;;;;8.63;2.40;;;4.20;99.90;;;;;;4996181;28;20052;-84
2024/01/14 10:34:45;;;;;;;14.27;2.30;;;4.20;99.90;;;;;;5013343;28;20225;-84
2024/01/14 10:37:14;;;;;;;9.80;2.25;;;4.20;99.90;;;;;;4995701;28;20064;-83
2024/01/14 10:39:43;;;;;;;10.85;2.72;;;4.20;99.90;;;;;;4999615;28;20038;-84
2024/01/14 10:42:09;;;;;;;12.15;2.45;;;4.30;99.90;;;;;;4993076;28;20069;-83
2024/01/14 10:44:35;;;;;;;10.73;2.33;;;4.40;99.90;;;;;;4992033;28;20512;-84
2024/01/14 10:47:07;;;;;;;11.90;2.35;;;4.40;99.90;;;;;;4995455;28;20046;-83
2024/01/14 10:49:37;;;;;;;8.82;2.53;;;4.60;99.90;;;;;;4989762;28;20049;-84
2024/01/14 10:52:10;;;;;;;8.60;2.30;;;4.60;99.90;;;;;;4979238;28;20046;-83
2024/01/14 10:54:52;;;;;;;7.85;2.03;;;4.70;99.90;;;;;;5002254;28;20059;-84
2024/01/14 10:57:37;;;;;;;10.77;1.95;;;4.70;99.90;;;;;;5001175;28;20104;-84
2024/01/14 11:00:09;;;;;;;12.88;2.00;;;4.70;99.90;;;;;;4998844;28;20049;-84
2024/01/14 11:02:40;;;;;;;11.75;2.50;;;4.70;99.90;;;;;;5017702;28;20137;-83
2024/01/14 11:05:07;;;;;;;9.10;2.45;;;4.60;99.90;;;;;;4984782;28;20121;-84
2024/01/14 11:07:34;;;;;;;8.70;2.05;;;4.70;99.90;;;;;;5017525;28;20054;-83
2024/01/14 11:10:05;;;;;;;11.80;2.13;;;4.70;99.90;;;;;;4985178;28;20050;-84
2024/01/14 11:12:50;;;;;;;10.75;1.95;;;4.70;99.90;;;;;;4989288;28;20484;-83
2024/01/14 11:15:24;;;;;;;11.98;2.00;;;4.70;99.90;;;;;;4979699;28;20049;-84
2024/01/14 11:17:56;;;;;;;11.00;2.33;;;4.80;99.90;;;;;;4996101;28;20046;-84
2024/01/14 11:20:27;;;;;;;9.43;2.35;;;4.90;99.90;;;;;;4998483;28;20044;-84
2024/01/14 11:22:56;;;;;;;7.55;2.38;;;5.00;99.90;;;;;;5000026;28;20046;-83
2024/01/14 11:25:23;;;;;;;10.23;2.20;;;4.90;99.90;;;;;;4997739;28;20038;-84
2024/01/14 11:27:50;;;;;;;9.32;2.05;;;5.00;99.90;;;;;;5000129;28;20054;-84
2024/01/14 11:30:40;;;;;;;11.13;2.50;;;5.00;99.90;;;;;;4999740;28;20041;-83
2024/01/14 11:33:29;;;;;;;7.03;2.30;;;5.00;99.90;;;;;;4996430;28;20133;-83
2024/01/14 11:35:56;;;;;;;6.57;2.00;;;5.00;99.90;;;;;;4996379;28;20099;-83
2024/01/14 11:38:58;;;;;;;9.02;2.08;;;5.00;99.90;;;;;;5021323;28;20042;-84
2024/01/14 11:41:28;;;;;;;15.45;2.13;;;5.00;99.90;;;;;;4981245;28;20081;-84
2024/01/14 11:44:11;;;;;;;11.88;2.08;;;4.90;99.90;;;;;;4988836;28;20142;-84
2024/01/14 11:46:47;;;;;;;12.35;2.55;;;5.00;99.90;;;;;;5001805;28;20042;-82
2024/01/14 11:49:20;;;;;;;7.72;2.17;;;5.00;99.90;;;;;;4985095;28;20034;-83
2024/01/14 11:52:02;;;;;;;7.03;2.05;;;4.90;99.90;;;;;;5001496;28;20119;-83
2024/01/14 11:54:31;;;;;;;9.82;2.17;;;4.90;99.90;;;;;;4988561;28;20034;-81
2024/01/14 11:56:58;;;;;;;7.10;1.98;;;4.90;99.90;;;;;;5001859;28;20168;-84
2024/01/14 11:59:25;;;;;;;9.63;2.00;;;4.90;99.90;;;;;;4988107;28;20069;-83
2024/01/14 12:01:58;;;;;;;9.60;1.77;;;4.90;99.90;;;;;;4982546;28;20134;-84
2024/01/14 12:04:25;;;;;;;9.05;1.80;;;5.10;99.90;;;;;;5020096;28;20505;-84
2024/01/14 12:06:51;;;;;;;10.63;2.00;;;5.10;99.90;;;;;;5003750;28;20060;-83
2024/01/14 12:09:25;;;;;;;7.20;2.08;;;5.20;99.90;;;;;;4984117;28;20202;-84
2024/01/14 12:11:57;;;;;;;11.82;2.20;;;5.10;99.90;;;;;;5017849;28;20171;-84
2024/01/14 12:14:26;;;;;;;8.38;2.03;;;5.10;99.90;;;;;;4978351;28;20131;-84
2024/01/14 12:16:57;;;;;;;7.50;1.77;;;5.10;99.90;;;;;;5016587;28;20038;-84
2024/01/14 12:19:32;;;;;;;5.90;1.52;;;5.20;99.90;;;;;;5009669;28;20045;-84
2024/01/14 12:21:59;;;;;;;4.22;1.42;;;5.20;99.90;;;;;;4981652;28;20053;-84
2024/01/14 12:24:29;;;;;;;7.65;2.08;;;5.30;99.90;;;;;;5001733;28;20038;-84
2024/01/14 12:26:59;;;;;;;5.32;1.27;;;5.40;99.90;;;;;;4999424;28;20046;-84
2024/01/14 12:29:30;;;;;;;6.32;1.60;;;5.60;99.90;;;;;;5016259;28;20488;-84
2024/01/14 12:31:56;;;;;;;7.97;1.63;;;5.70;99.90;;;;;;4982389;28;20148;-84
2024/01/14 12:34:23;;;;;;;6.20;1.33;;;5.50;99.90;;;;;;4982515;28;20204;-83
2024/01/14 12:36:49;;;;;;;6.63;1.63;;;5.40;99.90;;;;;;4996669;28;20065;-82
2024/01/14 12:39:16;;;;;;;5.78;1.77;;;5.40;99.90;;;;;;4995544;28;20050;-84
2024/01/14 12:41:42;;;;;;;8.32;1.45;;;5.40;99.90;;;;;;4982858;28;20121;-83
2024/01/14 12:44:07;;;;;;;6.30;1.45;;;5.40;99.90;;;;;;4982203;28;20129;-84
2024/01/14 12:46:33;;;;;;;3.60;1.35;;;5.60;99.90;;;;;;4994939;28;20061;-84
2024/01/14 12:49:05;;;;;;;6.30;1.60;;;5.60;99.90;;;;;;4996591;28;20088;-83
2024/01/14 12:51:31;;;;;;;8.43;2.17;;;5.50;99.90;;;;;;4995637;28;20045;-84